sensor_id;sensor_type;location;lat;lon;timestamp;P1;durP1;ratioP1;P2;durP2;ratioP2
45318;SDS011;31057;48.498;32.260;2024-03-02T00:00:41;62.75;;;34.22;;
45318;SDS011;31057;48.498;32.260;2024-03-02T00:04:48;53.17;;;32.80;;
45318;SDS011;31057;48.498;32.260;2024-03-02T00:08:57;55.90;;;33.03;;
45318;SDS011;31057;48.498;32.260;2024-03-02T00:11:00;61.80;;;35.35;;
45318;SDS011;31057;48.498;32.260;2024-03-02T00:13:04;53.08;;;32.63;;
45318;SDS011;31057;48.498;32.260;2024-03-02T00:17:37;57.63;;;35.20;;
45318;SDS011;31057;48.498;32.260;2024-03-02T00:19:39;63.78;;;37.20;;
45318;SDS011;31057;48.498;32.260;2024-03-02T00:21:41;78.35;;;38.53;;
45318;SDS011;31057;48.498;32.260;2024-03-02T00:23:43;73.68;;;38.67;;
45318;SDS011;31057;48.498;32.260;2024-03-02T00:27:51;63.95;;;34.63;;
45318;SDS011;31057;48.498;32.260;2024-03-02T00:31:55;69.55;;;37.05;;
45318;SDS011;31057;48.498;32.260;2024-03-02T00:33:58;72.68;;;38.53;;
45318;SDS011;31057;48.498;32.260;2024-03-02T00:36:06;75.32;;;39.03;;
45318;SDS011;31057;48.498;32.260;2024-03-02T00:38:09;71.80;;;37.85;;
45318;SDS011;31057;48.498;32.260;2024-03-02T00:42:14;64.05;;;37.05;;
45318;SDS011;31057;48.498;32.260;2024-03-02T00:46:20;60.13;;;32.40;;
45318;SDS011;31057;48.498;32.260;2024-03-02T00:48:22;65.97;;;35.70;;
45318;SDS011;31057;48.498;32.260;2024-03-02T00:52:31;61.63;;;35.55;;
45318;SDS011;31057;48.498;32.260;2024-03-02T00:54:34;63.35;;;36.00;;
45318;SDS011;31057;48.498;32.260;2024-03-02T00:58:38;54.38;;;33.65;;
45318;SDS011;31057;48.498;32.260;2024-03-02T01:00:40;62.25;;;34.10;;
45318;SDS011;31057;48.498;32.260;2024-03-02T01:04:46;55.35;;;34.45;;
45318;SDS011;31057;48.498;32.260;2024-03-02T01:08:51;61.72;;;36.60;;
45318;SDS011;31057;48.498;32.260;2024-03-02T01:10:54;64.35;;;37.55;;
45318;SDS011;31057;48.498;32.260;2024-03-02T01:12:56;63.50;;;37.40;;
45318;SDS011;31057;48.498;32.260;2024-03-02T01:17:00;68.55;;;36.88;;
45318;SDS011;31057;48.498;32.260;2024-03-02T01:19:05;60.55;;;36.58;;
45318;SDS011;31057;48.498;32.260;2024-03-02T01:21:07;61.53;;;36.42;;
45318;SDS011;31057;48.498;32.260;2024-03-02T01:23:09;62.90;;;37.25;;
45318;SDS011;31057;48.498;32.260;2024-03-02T01:25:11;65.25;;;35.95;;
45318;SDS011;31057;48.498;32.260;2024-03-02T01:27:13;64.18;;;36.58;;
45318;SDS011;31057;48.498;32.260;2024-03-02T01:31:17;60.67;;;36.33;;
45318;SDS011;31057;48.498;32.260;2024-03-02T01:35:21;61.65;;;35.55;;
45318;SDS011;31057;48.498;32.260;2024-03-02T01:37:23;68.63;;;38.75;;
45318;SDS011;31057;48.498;32.260;2024-03-02T01:41:27;57.58;;;33.45;;
45318;SDS011;31057;48.498;32.260;2024-03-02T01:43:29;52.70;;;33.20;;
45318;SDS011;31057;48.498;32.260;2024-03-02T01:47:33;54.97;;;33.67;;
45318;SDS011;31057;48.498;32.260;2024-03-02T01:49:36;61.15;;;33.42;;
45318;SDS011;31057;48.498;32.260;2024-03-02T01:51:40;65.10;;;35.97;;
45318;SDS011;31057;48.498;32.260;2024-03-02T01:53:42;57.30;;;35.25;;
45318;SDS011;31057;48.498;32.260;2024-03-02T01:55:44;63.58;;;33.90;;
45318;SDS011;31057;48.498;32.260;2024-03-02T01:57:46;65.15;;;37.25;;
45318;SDS011;31057;48.498;32.260;2024-03-02T01:59:49;70.22;;;36.78;;
45318;SDS011;31057;48.498;32.260;2024-03-02T02:01:52;58.83;;;35.83;;
45318;SDS011;31057;48.498;32.260;2024-03-02T02:07:58;58.00;;;32.25;;
45318;SDS011;31057;48.498;32.260;2024-03-02T02:10:00;58.53;;;34.13;;
45318;SDS011;31057;48.498;32.260;2024-03-02T02:12:03;55.28;;;33.00;;
45318;SDS011;31057;48.498;32.260;2024-03-02T02:14:08;59.10;;;33.05;;
45318;SDS011;31057;48.498;32.260;2024-03-02T02:16:10;57.80;;;33.55;;
45318;SDS011;31057;48.498;32.260;2024-03-02T02:18:12;61.22;;;34.92;;
45318;SDS011;31057;48.498;32.260;2024-03-02T02:22:15;54.13;;;32.20;;
45318;SDS011;31057;48.498;32.260;2024-03-02T02:24:17;57.97;;;32.40;;
45318;SDS011;31057;48.498;32.260;2024-03-02T02:28:21;57.53;;;34.72;;
45318;SDS011;31057;48.498;32.260;2024-03-02T02:30:25;63.55;;;31.73;;
45318;SDS011;31057;48.498;32.260;2024-03-02T02:32:29;61.83;;;33.80;;
45318;SDS011;31057;48.498;32.260;2024-03-02T02:36:33;62.05;;;37.45;;
45318;SDS011;31057;48.498;32.260;2024-03-02T02:38:39;65.50;;;36.67;;
45318;SDS011;31057;48.498;32.260;2024-03-02T02:40:44;66.93;;;35.90;;
45318;SDS011;31057;48.498;32.260;2024-03-02T02:44:49;62.83;;;35.08;;
45318;SDS011;31057;48.498;32.260;2024-03-02T02:46:50;63.55;;;35.55;;
45318;SDS011;31057;48.498;32.260;2024-03-02T02:48:52;71.90;;;36.38;;
45318;SDS011;31057;48.498;32.260;2024-03-02T02:50:55;62.17;;;34.30;;
45318;SDS011;31057;48.498;32.260;2024-03-02T02:52:57;69.47;;;36.80;;
45318;SDS011;31057;48.498;32.260;2024-03-02T02:54:59;60.75;;;35.35;;
45318;SDS011;31057;48.498;32.260;2024-03-02T02:59:03;61.80;;;35.28;;
45318;SDS011;31057;48.498;32.260;2024-03-02T03:01:07;59.95;;;36.97;;
45318;SDS011;31057;48.498;32.260;2024-03-02T03:03:09;55.65;;;35.15;;
45318;SDS011;31057;48.498;32.260;2024-03-02T03:05:11;68.13;;;36.35;;
45318;SDS011;31057;48.498;32.260;2024-03-02T03:07:15;63.67;;;36.67;;
45318;SDS011;31057;48.498;32.260;2024-03-02T03:11:19;62.85;;;34.80;;
45318;SDS011;31057;48.498;32.260;2024-03-02T03:13:22;55.97;;;34.15;;
45318;SDS011;31057;48.498;32.260;2024-03-02T03:15:24;59.53;;;35.95;;
45318;SDS011;31057;48.498;32.260;2024-03-02T03:17:27;59.58;;;36.72;;
45318;SDS011;31057;48.498;32.260;2024-03-02T03:19:29;58.17;;;36.33;;
45318;SDS011;31057;48.498;32.260;2024-03-02T03:23:33;58.90;;;33.08;;
45318;SDS011;31057;48.498;32.260;2024-03-02T03:27:37;56.53;;;34.67;;
45318;SDS011;31057;48.498;32.260;2024-03-02T03:29:39;60.17;;;34.45;;
45318;SDS011;31057;48.498;32.260;2024-03-02T03:33:43;59.60;;;34.90;;
45318;SDS011;31057;48.498;32.260;2024-03-02T03:35:45;62.70;;;35.70;;
45318;SDS011;31057;48.498;32.260;2024-03-02T03:37:47;100.47;;;54.03;;
45318;SDS011;31057;48.498;32.260;2024-03-02T03:39:49;79.28;;;45.78;;
45318;SDS011;31057;48.498;32.260;2024-03-02T03:41:51;84.03;;;48.70;;
45318;SDS011;31057;48.498;32.260;2024-03-02T03:45:56;59.03;;;34.58;;
45318;SDS011;31057;48.498;32.260;2024-03-02T03:50:00;64.85;;;33.58;;
45318;SDS011;31057;48.498;32.260;2024-03-02T03:52:02;61.15;;;35.08;;
45318;SDS011;31057;48.498;32.260;2024-03-02T03:54:05;63.25;;;35.10;;
45318;SDS011;31057;48.498;32.260;2024-03-02T03:56:07;66.40;;;36.80;;
45318;SDS011;31057;48.498;32.260;2024-03-02T04:00:11;54.70;;;34.17;;
45318;SDS011;31057;48.498;32.260;2024-03-02T04:02:14;68.72;;;41.58;;
45318;SDS011;31057;48.498;32.260;2024-03-02T04:06:18;60.55;;;35.47;;
45318;SDS011;31057;48.498;32.260;2024-03-02T04:10:22;58.60;;;33.78;;
45318;SDS011;31057;48.498;32.260;2024-03-02T04:12:25;61.80;;;36.00;;
45318;SDS011;31057;48.498;32.260;2024-03-02T04:16:29;62.17;;;32.75;;
45318;SDS011;31057;48.498;32.260;2024-03-02T04:20:36;55.35;;;31.38;;
45318;SDS011;31057;48.498;32.260;2024-03-02T04:22:38;60.90;;;36.60;;
45318;SDS011;31057;48.498;32.260;2024-03-02T04:26:42;55.92;;;31.83;;
45318;SDS011;31057;48.498;32.260;2024-03-02T04:30:45;65.45;;;34.08;;
45318;SDS011;31057;48.498;32.260;2024-03-02T04:36:52;55.25;;;31.25;;
45318;SDS011;31057;48.498;32.260;2024-03-02T04:40:56;61.25;;;33.20;;
45318;SDS011;31057;48.498;32.260;2024-03-02T04:42:58;61.35;;;37.05;;
45318;SDS011;31057;48.498;32.260;2024-03-02T04:45:04;55.80;;;31.80;;
45318;SDS011;31057;48.498;32.260;2024-03-02T04:47:06;68.38;;;38.40;;
45318;SDS011;31057;48.498;32.260;2024-03-02T04:49:08;57.33;;;33.05;;
45318;SDS011;31057;48.498;32.260;2024-03-02T04:53:12;56.33;;;34.20;;
45318;SDS011;31057;48.498;32.260;2024-03-02T04:55:15;61.97;;;35.13;;
45318;SDS011;31057;48.498;32.260;2024-03-02T04:57:17;59.80;;;33.40;;
45318;SDS011;31057;48.498;32.260;2024-03-02T05:01:21;60.75;;;34.03;;
45318;SDS011;31057;48.498;32.260;2024-03-02T05:05:25;55.90;;;33.08;;
45318;SDS011;31057;48.498;32.260;2024-03-02T05:07:27;61.97;;;35.17;;
45318;SDS011;31057;48.498;32.260;2024-03-02T05:11:31;65.22;;;37.65;;
45318;SDS011;31057;48.498;32.260;2024-03-02T05:13:53;58.10;;;34.20;;
45318;SDS011;31057;48.498;32.260;2024-03-02T05:15:56;59.72;;;35.92;;
45318;SDS011;31057;48.498;32.260;2024-03-02T05:17:58;62.92;;;35.30;;
45318;SDS011;31057;48.498;32.260;2024-03-02T05:20:02;64.78;;;34.28;;
45318;SDS011;31057;48.498;32.260;2024-03-02T05:22:09;64.10;;;35.10;;
45318;SDS011;31057;48.498;32.260;2024-03-02T05:24:11;57.30;;;34.58;;
45318;SDS011;31057;48.498;32.260;2024-03-02T05:28:15;54.60;;;32.13;;
45318;SDS011;31057;48.498;32.260;2024-03-02T05:30:17;52.22;;;30.48;;
45318;SDS011;31057;48.498;32.260;2024-03-02T05:32:19;57.65;;;32.20;;
45318;SDS011;31057;48.498;32.260;2024-03-02T05:36:23;61.47;;;32.72;;
45318;SDS011;31057;48.498;32.260;2024-03-02T05:38:26;61.05;;;32.42;;
45318;SDS011;31057;48.498;32.260;2024-03-02T05:40:28;62.40;;;33.83;;
45318;SDS011;31057;48.498;32.260;2024-03-02T05:44:31;71.35;;;34.05;;
45318;SDS011;31057;48.498;32.260;2024-03-02T05:46:33;66.72;;;36.88;;
45318;SDS011;31057;48.498;32.260;2024-03-02T05:48:38;61.60;;;35.47;;
45318;SDS011;31057;48.498;32.260;2024-03-02T05:52:42;86.97;;;40.85;;
45318;SDS011;31057;48.498;32.260;2024-03-02T05:54:44;75.40;;;42.17;;
45318;SDS011;31057;48.498;32.260;2024-03-02T05:58:48;65.35;;;35.20;;
45318;SDS011;31057;48.498;32.260;2024-03-02T06:01:08;62.95;;;35.40;;
45318;SDS011;31057;48.498;32.260;2024-03-02T06:05:12;54.92;;;32.22;;
45318;SDS011;31057;48.498;32.260;2024-03-02T06:09:16;63.95;;;32.42;;
45318;SDS011;31057;48.498;32.260;2024-03-02T06:11:19;63.83;;;35.25;;
45318;SDS011;31057;48.498;32.260;2024-03-02T06:13:21;62.95;;;35.33;;
45318;SDS011;31057;48.498;32.260;2024-03-02T06:15:24;61.78;;;34.42;;
45318;SDS011;31057;48.498;32.260;2024-03-02T06:17:26;62.42;;;35.67;;
45318;SDS011;31057;48.498;32.260;2024-03-02T06:21:30;60.10;;;34.85;;
45318;SDS011;31057;48.498;32.260;2024-03-02T06:25:34;56.15;;;33.05;;
45318;SDS011;31057;48.498;32.260;2024-03-02T06:27:36;55.03;;;32.72;;
45318;SDS011;31057;48.498;32.260;2024-03-02T06:29:38;58.75;;;33.30;;
45318;SDS011;31057;48.498;32.260;2024-03-02T06:31:40;52.50;;;32.33;;
45318;SDS011;31057;48.498;32.260;2024-03-02T06:33:42;61.25;;;34.20;;
45318;SDS011;31057;48.498;32.260;2024-03-02T06:37:46;53.83;;;27.52;;
45318;SDS011;31057;48.498;32.260;2024-03-02T06:39:48;50.70;;;30.80;;
45318;SDS011;31057;48.498;32.260;2024-03-02T06:43:52;43.42;;;24.85;;
45318;SDS011;31057;48.498;32.260;2024-03-02T06:46:01;52.30;;;29.85;;
45318;SDS011;31057;48.498;32.260;2024-03-02T06:48:04;54.47;;;27.35;;
45318;SDS011;31057;48.498;32.260;2024-03-02T06:50:06;55.38;;;30.70;;
45318;SDS011;31057;48.498;32.260;2024-03-02T06:52:09;57.20;;;32.92;;
45318;SDS011;31057;48.498;32.260;2024-03-02T06:54:10;55.75;;;30.83;;
45318;SDS011;31057;48.498;32.260;2024-03-02T06:56:12;56.65;;;31.75;;
45318;SDS011;31057;48.498;32.260;2024-03-02T07:00:17;56.10;;;30.30;;
45318;SDS011;31057;48.498;32.260;2024-03-02T07:02:21;48.42;;;28.58;;
45318;SDS011;31057;48.498;32.260;2024-03-02T07:04:24;57.40;;;31.52;;
45318;SDS011;31057;48.498;32.260;2024-03-02T07:08:28;49.78;;;29.77;;
45318;SDS011;31057;48.498;32.260;2024-03-02T07:10:30;50.83;;;30.50;;
45318;SDS011;31057;48.498;32.260;2024-03-02T07:14:34;43.72;;;25.20;;
45318;SDS011;31057;48.498;32.260;2024-03-02T07:17:12;46.80;;;27.00;;
45318;SDS011;31057;48.498;32.260;2024-03-02T07:21:16;46.55;;;27.90;;
45318;SDS011;31057;48.498;32.260;2024-03-02T07:23:18;48.55;;;27.10;;
45318;SDS011;31057;48.498;32.260;2024-03-02T07:25:21;49.78;;;28.98;;
45318;SDS011;31057;48.498;32.260;2024-03-02T07:27:26;52.92;;;28.77;;
45318;SDS011;31057;48.498;32.260;2024-03-02T07:31:30;42.08;;;23.30;;
45318;SDS011;31057;48.498;32.260;2024-03-02T07:35:35;48.72;;;24.05;;
45318;SDS011;31057;48.498;32.260;2024-03-02T07:39:38;44.75;;;24.17;;
45318;SDS011;31057;48.498;32.260;2024-03-02T07:41:41;44.70;;;23.88;;
45318;SDS011;31057;48.498;32.260;2024-03-02T07:45:46;30.63;;;16.45;;
45318;SDS011;31057;48.498;32.260;2024-03-02T07:47:48;29.58;;;18.38;;
45318;SDS011;31057;48.498;32.260;2024-03-02T07:49:51;38.30;;;20.05;;
45318;SDS011;31057;48.498;32.260;2024-03-02T07:53:55;39.67;;;20.55;;
45318;SDS011;31057;48.498;32.260;2024-03-02T07:55:57;37.63;;;21.38;;
45318;SDS011;31057;48.498;32.260;2024-03-02T07:58:03;43.25;;;21.48;;
45318;SDS011;31057;48.498;32.260;2024-03-02T08:02:08;38.67;;;21.35;;
45318;SDS011;31057;48.498;32.260;2024-03-02T08:04:10;41.75;;;20.95;;
45318;SDS011;31057;48.498;32.260;2024-03-02T08:06:12;39.50;;;20.00;;
45318;SDS011;31057;48.498;32.260;2024-03-02T08:08:16;41.50;;;22.08;;
45318;SDS011;31057;48.498;32.260;2024-03-02T08:10:18;36.05;;;20.90;;
45318;SDS011;31057;48.498;32.260;2024-03-02T08:12:20;41.35;;;19.52;;
45318;SDS011;31057;48.498;32.260;2024-03-02T08:14:25;36.83;;;20.52;;
45318;SDS011;31057;48.498;32.260;2024-03-02T08:16:27;38.67;;;19.58;;
45318;SDS011;31057;48.498;32.260;2024-03-02T08:18:30;34.08;;;20.02;;
45318;SDS011;31057;48.498;32.260;2024-03-02T08:20:32;43.05;;;18.67;;
45318;SDS011;31057;48.498;32.260;2024-03-02T08:22:34;33.33;;;19.20;;
45318;SDS011;31057;48.498;32.260;2024-03-02T08:24:36;36.42;;;19.30;;
45318;SDS011;31057;48.498;32.260;2024-03-02T08:28:40;25.40;;;17.40;;
45318;SDS011;31057;48.498;32.260;2024-03-02T08:30:42;37.28;;;18.77;;
45318;SDS011;31057;48.498;32.260;2024-03-02T08:32:44;35.35;;;19.58;;
45318;SDS011;31057;48.498;32.260;2024-03-02T08:34:48;32.75;;;19.10;;
45318;SDS011;31057;48.498;32.260;2024-03-02T08:36:50;24.40;;;15.02;;
45318;SDS011;31057;48.498;32.260;2024-03-02T08:40:54;35.90;;;16.40;;
45318;SDS011;31057;48.498;32.260;2024-03-02T08:44:58;26.38;;;13.50;;
45318;SDS011;31057;48.498;32.260;2024-03-02T08:47:02;29.27;;;16.13;;
45318;SDS011;31057;48.498;32.260;2024-03-02T08:49:04;34.88;;;18.45;;
45318;SDS011;31057;48.498;32.260;2024-03-02T08:51:07;27.40;;;17.08;;
45318;SDS011;31057;48.498;32.260;2024-03-02T08:53:11;37.85;;;19.33;;
45318;SDS011;31057;48.498;32.260;2024-03-02T08:55:13;28.70;;;17.33;;
45318;SDS011;31057;48.498;32.260;2024-03-02T08:57:15;36.67;;;18.70;;
45318;SDS011;31057;48.498;32.260;2024-03-02T08:59:17;26.42;;;16.42;;
45318;SDS011;31057;48.498;32.260;2024-03-02T09:01:19;30.20;;;17.60;;
45318;SDS011;31057;48.498;32.260;2024-03-02T09:03:21;31.65;;;16.75;;
45318;SDS011;31057;48.498;32.260;2024-03-02T09:05:23;34.25;;;19.02;;
45318;SDS011;31057;48.498;32.260;2024-03-02T09:07:25;26.42;;;16.40;;
45318;SDS011;31057;48.498;32.260;2024-03-02T09:09:27;34.55;;;15.60;;
45318;SDS011;31057;48.498;32.260;2024-03-02T09:11:29;31.90;;;19.85;;
45318;SDS011;31057;48.498;32.260;2024-03-02T09:13:32;29.25;;;17.80;;
45318;SDS011;31057;48.498;32.260;2024-03-02T09:15:34;31.98;;;16.50;;
45318;SDS011;31057;48.498;32.260;2024-03-02T09:17:39;28.02;;;16.00;;
45318;SDS011;31057;48.498;32.260;2024-03-02T09:19:41;26.85;;;15.23;;
45318;SDS011;31057;48.498;32.260;2024-03-02T09:21:43;32.70;;;18.20;;
45318;SDS011;31057;48.498;32.260;2024-03-02T09:23:45;34.00;;;17.48;;
45318;SDS011;31057;48.498;32.260;2024-03-02T09:25:49;30.17;;;15.25;;
45318;SDS011;31057;48.498;32.260;2024-03-02T09:27:51;29.45;;;13.73;;
45318;SDS011;31057;48.498;32.260;2024-03-02T09:31:55;25.90;;;14.43;;
45318;SDS011;31057;48.498;32.260;2024-03-02T09:33:57;30.35;;;15.05;;
45318;SDS011;31057;48.498;32.260;2024-03-02T09:35:59;31.40;;;16.98;;
45318;SDS011;31057;48.498;32.260;2024-03-02T09:40:05;25.77;;;13.85;;
45318;SDS011;31057;48.498;32.260;2024-03-02T09:42:07;29.88;;;14.98;;
45318;SDS011;31057;48.498;32.260;2024-03-02T09:44:09;25.48;;;14.32;;
45318;SDS011;31057;48.498;32.260;2024-03-02T09:46:12;23.48;;;14.00;;
45318;SDS011;31057;48.498;32.260;2024-03-02T09:50:19;23.38;;;13.15;;
45318;SDS011;31057;48.498;32.260;2024-03-02T09:52:24;19.67;;;11.88;;
45318;SDS011;31057;48.498;32.260;2024-03-02T09:54:27;21.80;;;10.85;;
45318;SDS011;31057;48.498;32.260;2024-03-02T09:56:30;22.65;;;13.52;;
45318;SDS011;31057;48.498;32.260;2024-03-02T09:58:32;21.00;;;10.35;;
45318;SDS011;31057;48.498;32.260;2024-03-02T10:00:34;18.90;;;10.32;;
45318;SDS011;31057;48.498;32.260;2024-03-02T10:02:36;20.70;;;10.55;;
45318;SDS011;31057;48.498;32.260;2024-03-02T10:04:38;20.00;;;11.23;;
45318;SDS011;31057;48.498;32.260;2024-03-02T10:06:40;17.48;;;10.43;;
45318;SDS011;31057;48.498;32.260;2024-03-02T10:08:45;15.57;;;10.40;;
45318;SDS011;31057;48.498;32.260;2024-03-02T10:10:47;20.50;;;11.95;;
45318;SDS011;31057;48.498;32.260;2024-03-02T10:15:04;22.83;;;13.02;;
45318;SDS011;31057;48.498;32.260;2024-03-02T10:17:11;21.52;;;13.25;;
45318;SDS011;31057;48.498;32.260;2024-03-02T10:19:17;19.50;;;10.15;;
45318;SDS011;31057;48.498;32.260;2024-03-02T10:21:21;21.83;;;12.93;;
45318;SDS011;31057;48.498;32.260;2024-03-02T10:23:25;16.30;;;10.55;;
45318;SDS011;31057;48.498;32.260;2024-03-02T10:25:28;25.33;;;12.02;;
45318;SDS011;31057;48.498;32.260;2024-03-02T10:27:51;25.05;;;12.82;;
45318;SDS011;31057;48.498;32.260;2024-03-02T10:31:55;28.33;;;11.73;;
45318;SDS011;31057;48.498;32.260;2024-03-02T10:33:57;15.63;;;9.50;;
45318;SDS011;31057;48.498;32.260;2024-03-02T10:38:03;18.58;;;11.05;;
45318;SDS011;31057;48.498;32.260;2024-03-02T10:40:07;20.05;;;11.32;;
45318;SDS011;31057;48.498;32.260;2024-03-02T10:42:11;20.90;;;11.52;;
45318;SDS011;31057;48.498;32.260;2024-03-02T10:44:15;17.20;;;11.10;;
45318;SDS011;31057;48.498;32.260;2024-03-02T10:46:21;21.13;;;11.65;;
45318;SDS011;31057;48.498;32.260;2024-03-02T10:48:25;20.80;;;11.07;;
45318;SDS011;31057;48.498;32.260;2024-03-02T10:50:29;23.15;;;11.82;;
45318;SDS011;31057;48.498;32.260;2024-03-02T10:52:32;25.33;;;12.10;;
45318;SDS011;31057;48.498;32.260;2024-03-02T10:54:34;28.10;;;12.52;;
45318;SDS011;31057;48.498;32.260;2024-03-02T10:56:41;21.60;;;12.50;;
45318;SDS011;31057;48.498;32.260;2024-03-02T10:58:46;18.77;;;11.32;;
45318;SDS011;31057;48.498;32.260;2024-03-02T11:00:51;23.00;;;11.90;;
45318;SDS011;31057;48.498;32.260;2024-03-02T11:02:56;26.83;;;12.35;;
45318;SDS011;31057;48.498;32.260;2024-03-02T11:04:59;19.92;;;11.85;;
45318;SDS011;31057;48.498;32.260;2024-03-02T11:07:05;20.45;;;11.02;;
45318;SDS011;31057;48.498;32.260;2024-03-02T11:09:09;23.05;;;12.13;;
45318;SDS011;31057;48.498;32.260;2024-03-02T11:11:15;21.80;;;12.60;;
45318;SDS011;31057;48.498;32.260;2024-03-02T11:13:22;26.80;;;13.73;;
45318;SDS011;31057;48.498;32.260;2024-03-02T11:15:28;21.15;;;13.25;;
45318;SDS011;31057;48.498;32.260;2024-03-02T11:17:31;24.75;;;13.07;;
45318;SDS011;31057;48.498;32.260;2024-03-02T11:21:36;20.13;;;10.15;;
45318;SDS011;31057;48.498;32.260;2024-03-02T11:23:39;19.23;;;11.07;;
45318;SDS011;31057;48.498;32.260;2024-03-02T11:25:41;18.95;;;11.18;;
45318;SDS011;31057;48.498;32.260;2024-03-02T11:29:49;26.08;;;10.85;;
45318;SDS011;31057;48.498;32.260;2024-03-02T11:31:58;21.10;;;11.85;;
45318;SDS011;31057;48.498;32.260;2024-03-02T11:34:16;20.90;;;11.52;;
45318;SDS011;31057;48.498;32.260;2024-03-02T11:36:31;22.30;;;11.90;;
45318;SDS011;31057;48.498;32.260;2024-03-02T11:40:38;17.30;;;11.55;;
45318;SDS011;31057;48.498;32.260;2024-03-02T11:42:41;19.90;;;9.50;;
45318;SDS011;31057;48.498;32.260;2024-03-02T11:44:47;20.50;;;10.30;;
45318;SDS011;31057;48.498;32.260;2024-03-02T11:47:00;16.60;;;9.10;;
45318;SDS011;31057;48.498;32.260;2024-03-02T11:49:02;23.90;;;10.73;;
45318;SDS011;31057;48.498;32.260;2024-03-02T11:51:06;23.05;;;11.00;;
45318;SDS011;31057;48.498;32.260;2024-03-02T11:55:15;20.95;;;11.65;;
45318;SDS011;31057;48.498;32.260;2024-03-02T11:57:19;17.92;;;10.60;;
45318;SDS011;31057;48.498;32.260;2024-03-02T11:59:25;29.45;;;12.82;;
45318;SDS011;31057;48.498;32.260;2024-03-02T12:01:28;17.02;;;11.20;;
45318;SDS011;31057;48.498;32.260;2024-03-02T12:03:31;18.10;;;10.90;;
45318;SDS011;31057;48.498;32.260;2024-03-02T12:05:37;18.40;;;10.95;;
45318;SDS011;31057;48.498;32.260;2024-03-02T12:07:39;18.08;;;10.90;;
45318;SDS011;31057;48.498;32.260;2024-03-02T12:09:41;17.38;;;10.60;;
45318;SDS011;31057;48.498;32.260;2024-03-02T12:13:51;20.08;;;10.73;;
45318;SDS011;31057;48.498;32.260;2024-03-02T12:15:56;20.63;;;11.70;;
45318;SDS011;31057;48.498;32.260;2024-03-02T12:17:59;16.63;;;9.98;;
45318;SDS011;31057;48.498;32.260;2024-03-02T12:20:04;14.60;;;7.53;;
45318;SDS011;31057;48.498;32.260;2024-03-02T12:22:06;22.05;;;12.63;;
45318;SDS011;31057;48.498;32.260;2024-03-02T12:26:10;17.95;;;8.43;;
45318;SDS011;31057;48.498;32.260;2024-03-02T12:30:16;20.85;;;8.60;;
45318;SDS011;31057;48.498;32.260;2024-03-02T12:32:19;17.23;;;10.52;;
45318;SDS011;31057;48.498;32.260;2024-03-02T12:34:21;15.98;;;8.98;;
45318;SDS011;31057;48.498;32.260;2024-03-02T12:36:24;13.10;;;6.50;;
45318;SDS011;31057;48.498;32.260;2024-03-02T12:38:28;14.20;;;8.50;;
45318;SDS011;31057;48.498;32.260;2024-03-02T12:40:30;21.60;;;10.88;;
45318;SDS011;31057;48.498;32.260;2024-03-02T12:42:33;21.30;;;9.80;;
45318;SDS011;31057;48.498;32.260;2024-03-02T12:46:37;23.00;;;11.48;;
45318;SDS011;31057;48.498;32.260;2024-03-02T12:48:39;15.85;;;8.55;;
45318;SDS011;31057;48.498;32.260;2024-03-02T12:50:42;11.32;;;6.85;;
45318;SDS011;31057;48.498;32.260;2024-03-02T12:52:52;22.05;;;11.27;;
45318;SDS011;31057;48.498;32.260;2024-03-02T12:54:55;20.45;;;10.30;;
45318;SDS011;31057;48.498;32.260;2024-03-02T12:57:00;12.55;;;8.45;;
45318;SDS011;31057;48.498;32.260;2024-03-02T12:59:04;16.45;;;8.55;;
45318;SDS011;31057;48.498;32.260;2024-03-02T13:01:09;15.07;;;8.75;;
45318;SDS011;31057;48.498;32.260;2024-03-02T13:03:12;14.57;;;8.85;;
45318;SDS011;31057;48.498;32.260;2024-03-02T13:05:16;19.85;;;9.98;;
45318;SDS011;31057;48.498;32.260;2024-03-02T13:09:20;17.65;;;8.85;;
45318;SDS011;31057;48.498;32.260;2024-03-02T13:11:23;19.88;;;9.98;;
45318;SDS011;31057;48.498;32.260;2024-03-02T13:13:30;18.75;;;8.98;;
45318;SDS011;31057;48.498;32.260;2024-03-02T13:15:35;24.48;;;10.20;;
45318;SDS011;31057;48.498;32.260;2024-03-02T13:17:37;23.88;;;8.48;;
45318;SDS011;31057;48.498;32.260;2024-03-02T13:19:53;26.42;;;10.32;;
45318;SDS011;31057;48.498;32.260;2024-03-02T13:21:57;21.75;;;9.50;;
45318;SDS011;31057;48.498;32.260;2024-03-02T13:24:00;15.82;;;8.48;;
45318;SDS011;31057;48.498;32.260;2024-03-02T13:26:02;21.17;;;8.10;;
45318;SDS011;31057;48.498;32.260;2024-03-02T13:28:05;18.70;;;8.63;;
45318;SDS011;31057;48.498;32.260;2024-03-02T13:30:07;22.13;;;8.88;;
45318;SDS011;31057;48.498;32.260;2024-03-02T13:32:10;9.45;;;5.97;;
45318;SDS011;31057;48.498;32.260;2024-03-02T13:34:12;11.00;;;6.85;;
45318;SDS011;31057;48.498;32.260;2024-03-02T13:36:14;15.57;;;10.25;;
45318;SDS011;31057;48.498;32.260;2024-03-02T13:38:17;20.20;;;10.10;;
45318;SDS011;31057;48.498;32.260;2024-03-02T13:40:20;19.05;;;11.40;;
45318;SDS011;31057;48.498;32.260;2024-03-02T13:44:24;20.92;;;11.50;;
45318;SDS011;31057;48.498;32.260;2024-03-02T13:46:27;34.25;;;10.13;;
45318;SDS011;31057;48.498;32.260;2024-03-02T13:48:29;31.95;;;11.90;;
45318;SDS011;31057;48.498;32.260;2024-03-02T13:50:32;20.23;;;9.40;;
45318;SDS011;31057;48.498;32.260;2024-03-02T13:52:34;29.52;;;11.55;;
45318;SDS011;31057;48.498;32.260;2024-03-02T13:54:43;20.80;;;10.32;;
45318;SDS011;31057;48.498;32.260;2024-03-02T13:56:46;17.40;;;8.45;;
45318;SDS011;31057;48.498;32.260;2024-03-02T13:58:48;23.13;;;9.40;;
45318;SDS011;31057;48.498;32.260;2024-03-02T14:00:50;19.58;;;9.10;;
45318;SDS011;31057;48.498;32.260;2024-03-02T14:02:54;28.65;;;12.50;;
45318;SDS011;31057;48.498;32.260;2024-03-02T14:06:58;16.85;;;7.18;;
45318;SDS011;31057;48.498;32.260;2024-03-02T14:11:02;17.80;;;8.48;;
45318;SDS011;31057;48.498;32.260;2024-03-02T14:13:04;23.27;;;10.75;;
45318;SDS011;31057;48.498;32.260;2024-03-02T14:17:08;20.10;;;9.50;;
45318;SDS011;31057;48.498;32.260;2024-03-02T14:19:15;22.55;;;8.68;;
45318;SDS011;31057;48.498;32.260;2024-03-02T14:23:19;26.40;;;10.02;;
45318;SDS011;31057;48.498;32.260;2024-03-02T14:25:21;19.15;;;8.70;;
45318;SDS011;31057;48.498;32.260;2024-03-02T14:27:23;29.02;;;9.93;;
45318;SDS011;31057;48.498;32.260;2024-03-02T14:29:45;26.02;;;11.30;;
45318;SDS011;31057;48.498;32.260;2024-03-02T14:31:47;29.55;;;13.70;;
45318;SDS011;31057;48.498;32.260;2024-03-02T14:33:49;29.88;;;12.45;;
45318;SDS011;31057;48.498;32.260;2024-03-02T14:35:52;32.55;;;10.02;;
45318;SDS011;31057;48.498;32.260;2024-03-02T14:37:55;34.70;;;10.38;;
45318;SDS011;31057;48.498;32.260;2024-03-02T14:39:59;34.88;;;11.43;;
45318;SDS011;31057;48.498;32.260;2024-03-02T14:44:33;24.75;;;10.75;;
45318;SDS011;31057;48.498;32.260;2024-03-02T14:46:38;36.88;;;10.85;;
45318;SDS011;31057;48.498;32.260;2024-03-02T14:48:43;26.08;;;10.05;;
45318;SDS011;31057;48.498;32.260;2024-03-02T14:50:45;27.98;;;11.45;;
45318;SDS011;31057;48.498;32.260;2024-03-02T14:52:47;40.83;;;22.08;;